Wenden, Arizona
Current Conditions -  °F | °C
As of 12:15 PM on Friday 31 Oct 2014 (Local Time) from KBXK Reporting Station
Clear Clear  
Wind Chill: 29°   Ceiling: Unl
Heat Index: 29°   Visibility: 10mi
Dew Point:   Wind: 7mph
Humidity: 25%   Direction: 130°SE
Pressure: 29.88"   Gusts: NA
Location:  33.82°N, 113.54°W
Report Text: KBXK 311915Z AUTO 13006KT 10SM CLR 29/07 A2988 RMK AO1
Loading
Personal Weather Stations






























Interactive Weather Map
Tropical Storm Tracking
New forecast layout! Learn more

10-Day Weather Forecast

Advertisements
Track Severe Weather on mobile